Central Sonoma County Latest

37 Stations

15 Minute Data | America/Los_Angeles
as of 8/31/26 1:02 PM PDT
Station Date Time Temp (°F) RH (%) Dew Pt (°F) Wind Spd (mph) Wind Dir (°) Wind Gust (mph) Latest Rain (In) Daily Rain (In) Daily Max Temp (°F) Daily Min Temp (°F)
Windsor-NW (Ranch 8) 8/31/26 1300 67.7   11.9 64   23 55.3   1.0 0.0   0.0 SW | 227 0.0   0.0 0.00 0.00 69.4   11.6 51.6   2.4
Windsor-East (Ranch 16) 8/31/26 1300 65.6   11.1 62   20 52.1   0.6 5.2   1.4 S | 176 10.6   2.7 0.00 0.00 66.6   11.4 47.8   3.7
Mark West-North (Ranch 14) 8/31/26 1300 66.6   12.2 58   21 51.3   1.2 3.2   1.6 W | 280 7.3   1.3 0.00 0.00 67.5   12.6 50.1   4.3
Windsor-SE (Silk Rd) 8/31/26 1300 66.0   11.1 62   22 52.6   1.5 2.9   0.0 SSE | 152 8.3   0.5 0.00 0.00 67.5   10.3 50.0   6.4
Fulton-NW (Ranch 5) 8/31/26 1300 65.2   12.2 65   23 53.0   0.7 5.1   1.8 SE | 143 10.0   3.4 0.00 0.00 65.9   11.8 48.6   3.6
Bisordi (Fulton) 8/31/26 1300 66.6   10.8 69   21 56.2   0.2 3.6   0.3 SSW | 206 8.3   0.7 0.00 0.00 66.6   10.9 46.9   4.1
Windsor-South (Laughlin Rd) 8/31/26 1300 67.4   11.5 60   22 52.8   1.9 - - - 0.00 0.00 68.0   12.6 51.0   3.9
Fulton-SE (Barnes Rd) 8/31/26 1300 65.8   10.9 64   19 53.2   0.2 3.4   0.2 S | 186 9.4   0.9 0.00 0.00 66.4   10.5 48.5   2.0
Fulton-SW (Ranch 21) 8/31/26 1300 65.1   11.8 65   23 52.9   1.4 3.9   1.2 SSE | 159 10.9   4.6 0.00 0.00 65.6   11.8 47.7   2.2
NW Santa Rosa (Piner Road) 8/31/26 1300 64.7   12.2 76   29 57.1   1.6 2.5   0.0 SSE | 154 5.8   0.3 0.00 0.00 65.7   11.9 46.6   3.7
River Rd South (Denner Ranch) 8/31/26 1300 65.9   12.3 63   23 53.2   1.0 5.6   0.8 ESE | 123 11.6   1.1 - - 66.9   12.2 47.4   3.8
West Santa Rosa (LOV Vineyard) 8/26/26 0900 53.3   5.2 97   6 52.4   3.5 1.0   0.1 SW | 224 3.6   0.0 0.00 0.00 53.6   5.2 50.2   1.8
Guerneville Rd (Prokopakis) 8/31/26 1300 69.4   11.7 57   19 53.5   0.4 - - - 0.00 0.00 70.7   12.8 47.8   3.8
SunnyView Vineyard (SCWC) 8/31/26 1300 66.0   12.3 62   22 52.4   0.8 3.2   1.3 S | 176 7.1   0.5 0.00 0.00 66.6   12.3 45.3   3.5
Guerneville Rd West (Balletto) 8/31/26 1300 65.6   12.5 68   22 54.9   0.7 4.7   2.0 SSE | 159 10.7   3.2 0.00 0.00 66.7   12.3 48.4   4.4
Sanchietti Ranch 8/31/26 1300 67.4   10.9 70   19 57.4   1.3 3.9   0.5 S | 172 10.0   1.2 0.00 0.00 67.6   11.2 47.5   4.4
Occidental Rd (Sebastopol) 8/31/26 1300 67.3   12.0 81   31 61.4   2.2 2.1   0.8 SE | 146 5.7   2.9 0.00 0.00 68.5   12.5 46.2   3.6
Harper's Rest (Windsor-West) 8/31/26 1300 68.5   10.7 55   17 51.7   0.4 2.9   0.2 E | 89 8.4   2.3 0.00 0.00 69.0   11.1 48.5   3.3
Lower Westside Rd (Ranch 12) 8/31/26 1300 68.0   11.3 58   19 52.8   0.3 3.6   0.4 SE | 134 9.7   2.0 0.00 0.00 68.7   11.5 49.2   4.8
Guerneville (Laughlin Rd) 8/31/26 1300 73.6   7.4 48   11 52.6   0.5 4.6   1.4 SSE | 164 9.1   0.3 0.00 0.00 73.6   7.8 48.0   4.2
Korbel (Winery) 8/31/26 1300 70.9   11.5 55   18 53.9   0.4 3.2   3.0 E | 83 7.5   3.6 0.00 0.00 71.2   11.7 49.9   3.9
Forestville (Shone Farms) 8/31/26 1300 66.7   11.6 63   21 53.7   0.2 3.6   1.6 ESE | 107 8.8   2.7 0.00 0.00 68.1   11.5 49.0   1.8
Forestville-NE (Ranch 30) 8/31/26 1300 69.7   11.9 61   20 55.8   0.1 3.7   0.2 S | 172 10.6   0.1 0.00 0.00 69.7   12.4 49.4   4.0
Foggy Bend (Ranch 41) 8/31/26 1300 67.4   12.2 66   19 55.8   2.3 3.3   1.0 S | 174 10.4   4.5 0.00 0.00 68.0   12.4 49.9   4.9
Last Stop 8/31/26 1300 72.0   9.4 55   12 54.8   1.4 3.4   0.5 ESE | 114 8.4   0.1 0.00 0.00 72.0   10.0 46.9   3.1
Green Valley Vineyard 8/31/26 1300 67.2   11.0 61   20 53.5   0.5 4.0   0.7 ENE | 73 8.6   0.2 0.00 0.00 68.2   10.9 47.2   1.7
Park Royal 8/31/26 1300 66.1   12.1 62   23 52.6   1.4 - - - 0.00 0.00 66.4   12.6 47.9   2.9
Merino 8/31/26 1300 68.2   12.0 65   21 56.1   0.1 3.4   0.8 S | 183 8.5   1.0 0.00 0.00 69.0   12.4 44.9   4.6
Green Valley (Sanchietti) 8/31/26 1300 68.7   12.5 - - - - - - - 70.9   11.8 44.6   5.6
Keefer Ranch (Green Valley) 8/31/26 1300 70.2   9.6 60   17 55.6   0.3 - - - 0.00 0.00 70.3   9.7 46.2   4.5
Graton-West (Dutton Ranch) 8/31/26 1300 70.2   9.6 65   24 57.8   3.9 3.3   0.2 SSE | 151 8.4   1.7 0.00 0.00 71.2   10.0 47.6   5.6
Graton-South (Mill Station Rd) 8/31/26 1300 67.3   8.6 61   14 53.5   0.6 2.2   0.1 S | 170 5.0   1.9 0.00 0.00 68.0   8.5 44.1   3.6
Occidental (Horseshoe Bend) 8/31/26 1300 65.5   8.2 65   16 53.5   0.2 - - - 0.00 0.00 66.4   8.1 51.6   2.4
Sexton Valley (Jacqueline's Blk) 8/31/26 1300 67.8   8.8 64   13 55.2   1.9 2.4   1.4 WSW | 237 8.6   1.0 0.00 0.00 68.3   9.1 44.6   2.7
Sebastopol Hills (Burnside Rd) 8/31/26 1300 65.7   8.0 67   14 54.6   1.2 5.2   0.2 S | 181 10.8   0.4 0.00 0.00 66.2   8.3 50.3   1.5
Pleasant Hill 8/31/26 1300 69.4   9.8 57   14 53.3   1.1 3.3   0.0 SE | 125 9.2   0.3 0.00 0.00 69.8   10.0 46.6   1.8
Seaview/Fort Ross (Hirsch) 8/31/26 1300 63.1   3.3 69   12 52.7   2.3 3.2   1.4 W | 273 7.4   0.2 0.00 0.00 64.3   3.9 48.5   6.1
Max     73.6 81 61.4 5.6 - 11.6 0.00 0.00 73.6 51.6
Avg     67.5 63 54.3 3.5 - 8.5 0.00 - - -
Min     63.1 48 51.3 0.0 - 0.0 0.00 0.00 64.3 44.1